createdAt,value
2022-12-08T00:01:34.590Z,-0.26
2022-12-08T00:04:58.112Z,-0.27
2022-12-08T00:08:19.704Z,-0.24
2022-12-08T00:11:23.065Z,-0.18
2022-12-08T00:14:33.458Z,-0.13
2022-12-08T00:17:36.785Z,-0.19
2022-12-08T00:20:39.510Z,-0.26
2022-12-08T00:23:42.534Z,-0.34
2022-12-08T00:26:45.460Z,-0.41
2022-12-08T00:29:50.143Z,-0.56
2022-12-08T00:33:13.017Z,-0.57
2022-12-08T00:36:16.558Z,-0.66
2022-12-08T00:39:19.573Z,-0.69
2022-12-08T00:42:22.680Z,-0.70
2022-12-08T00:45:25.357Z,-0.61
2022-12-08T00:48:28.723Z,-0.61
2022-12-08T00:51:32.108Z,-0.62
2022-12-08T00:54:35.550Z,-0.73
2022-12-08T00:57:38.240Z,-0.79
2022-12-08T01:00:42.911Z,-0.82
2022-12-08T01:03:45.889Z,-0.81
2022-12-08T01:06:49.792Z,-0.80
2022-12-08T01:09:54.321Z,-0.81
2022-12-08T01:12:58.817Z,-0.78
2022-12-08T01:16:01.732Z,-0.77
2022-12-08T01:19:05.020Z,-0.56
2022-12-08T01:22:08.265Z,-0.78
2022-12-08T01:25:11.487Z,-0.70
2022-12-08T01:28:14.183Z,-0.68
2022-12-08T01:31:20.250Z,-0.66
2022-12-08T01:34:23.041Z,-0.65
2022-12-08T01:37:26.417Z,-0.73
2022-12-08T01:40:29.345Z,-0.69
2022-12-08T01:43:49.613Z,-0.43
2022-12-08T01:46:54.388Z,-0.20
2022-12-08T01:49:58.369Z,-0.51
2022-12-08T01:53:35.376Z,-0.49
2022-12-08T01:57:16.072Z,-0.36
2022-12-08T02:00:21.697Z,-0.36
2022-12-08T02:03:51.841Z,-0.46
2022-12-08T02:06:54.978Z,-0.55
2022-12-08T02:10:01.119Z,-0.55
2022-12-08T02:13:06.313Z,-0.40
2022-12-08T02:16:12.188Z,-0.33
2022-12-08T02:19:36.538Z,0.02
2022-12-08T02:23:08.305Z,0.24
2022-12-08T02:26:44.897Z,-0.23
2022-12-08T02:29:57.124Z,-0.25
2022-12-08T02:33:18.693Z,-0.28
2022-12-08T02:36:48.936Z,-0.29
2022-12-08T02:40:12.228Z,-0.27
2022-12-08T02:43:25.148Z,-0.33
2022-12-08T02:46:33.952Z,-0.35
2022-12-08T02:49:37.000Z,-0.42
2022-12-08T02:52:42.569Z,-0.45
2022-12-08T02:55:48.358Z,-0.41
2022-12-08T02:58:57.856Z,-0.39
2022-12-08T03:02:01.186Z,-0.38
2022-12-08T03:05:13.733Z,-0.30
2022-12-08T03:08:33.229Z,-0.26
2022-12-08T03:11:53.353Z,-0.44
2022-12-08T03:15:04.013Z,-0.41
2022-12-08T03:18:08.436Z,-0.39
2022-12-08T03:21:14.619Z,-0.31
2022-12-08T03:24:18.829Z,-0.26
2022-12-08T03:27:24.965Z,0.11
2022-12-08T03:30:36.893Z,-0.46
2022-12-08T03:33:44.905Z,-0.49
2022-12-08T03:36:51.980Z,-0.14
2022-12-08T03:39:55.584Z,-0.11
2022-12-08T03:42:58.368Z,-0.38
2022-12-08T03:46:01.411Z,-0.08
2022-12-08T03:49:04.157Z,0.18
2022-12-08T03:52:07.221Z,-0.19
2022-12-08T03:55:10.277Z,-0.15
2022-12-08T03:58:13.208Z,-0.44
2022-12-08T04:01:15.880Z,-0.42
2022-12-08T04:04:19.164Z,-0.30
2022-12-08T04:07:21.749Z,-0.04
2022-12-08T04:10:24.764Z,-0.27
2022-12-08T04:13:27.739Z,-0.51
2022-12-08T04:16:30.845Z,-0.50
2022-12-08T04:19:33.504Z,-0.17
2022-12-08T04:22:56.332Z,-0.08
2022-12-08T04:25:59.091Z,-0.42
2022-12-08T04:29:21.987Z,-0.46
2022-12-08T04:32:24.721Z,-0.40
2022-12-08T04:35:28.565Z,-0.05
2022-12-08T04:38:31.621Z,0.02
2022-12-08T04:41:36.323Z,-0.43
2022-12-08T04:44:58.850Z,-0.58
2022-12-08T04:48:02.958Z,-0.27
2022-12-08T04:51:06.341Z,-0.37
2022-12-08T04:54:29.252Z,-0.21
2022-12-08T04:57:36.296Z,-0.04
2022-12-08T05:00:40.940Z,-0.08
2022-12-08T05:03:51.953Z,-0.22
2022-12-08T05:06:56.171Z,-0.31
2022-12-08T05:10:00.213Z,-0.40
2022-12-08T05:13:11.978Z,-0.17
2022-12-08T05:16:16.507Z,-0.17
2022-12-08T05:19:22.922Z,-0.37
2022-12-08T05:22:45.595Z,0.02
2022-12-08T05:25:49.513Z,-0.28
2022-12-08T05:28:56.817Z,-0.39
2022-12-08T05:32:00.291Z,-0.55
2022-12-08T05:35:04.485Z,-0.45
2022-12-08T05:38:18.285Z,-0.47
2022-12-08T05:41:21.714Z,-0.50
2022-12-08T05:44:27.111Z,-0.48
2022-12-08T05:47:36.011Z,-0.58
2022-12-08T05:50:59.420Z,-0.54
2022-12-08T05:54:02.246Z,-0.50
2022-12-08T05:57:25.305Z,-0.49
2022-12-08T06:00:49.388Z,-0.56
2022-12-08T06:04:18.124Z,-0.51
2022-12-08T06:07:43.119Z,-0.47
2022-12-08T06:11:06.004Z,0.02
2022-12-08T06:14:12.684Z,-0.15
2022-12-08T06:17:18.584Z,-0.01
2022-12-08T06:20:43.186Z,-0.26
2022-12-08T06:23:51.703Z,-0.48
2022-12-08T06:26:54.343Z,0.13
2022-12-08T06:29:57.841Z,0.13
2022-12-08T06:33:00.564Z,0.56
2022-12-08T06:36:05.280Z,0.36
2022-12-08T06:39:09.979Z,0.31
2022-12-08T06:42:31.728Z,-0.02
2022-12-08T06:46:16.621Z,-0.34
2022-12-08T06:49:36.266Z,0.00
2022-12-08T06:52:49.302Z,0.21
2022-12-08T06:56:02.106Z,-0.08
2022-12-08T06:59:05.215Z,0.14
2022-12-08T07:02:16.059Z,0.05
2022-12-08T07:05:18.804Z,-0.12
2022-12-08T07:08:25.326Z,-0.34
2022-12-08T07:11:28.485Z,-0.34
2022-12-08T07:14:31.489Z,-0.35
2022-12-08T07:17:34.191Z,-0.13
2022-12-08T07:20:37.411Z,-0.30
2022-12-08T07:23:40.562Z,-0.18
2022-12-08T07:26:43.807Z,-0.17
2022-12-08T07:29:46.487Z,-0.11
2022-12-08T07:32:51.716Z,-0.08
2022-12-08T07:36:14.411Z,-0.09
2022-12-08T07:39:22.596Z,0.11
2022-12-08T07:42:25.331Z,0.10
2022-12-08T07:45:48.922Z,0.22
2022-12-08T07:49:11.673Z,0.19
2022-12-08T07:52:18.455Z,0.08
2022-12-08T07:55:21.317Z,0.05
2022-12-08T07:58:42.322Z,0.05
2022-12-08T08:02:23.351Z,0.22
2022-12-08T08:05:27.639Z,0.21
2022-12-08T08:08:30.765Z,0.24
2022-12-08T08:12:22.317Z,0.32
2022-12-08T08:15:36.603Z,0.38
2022-12-08T08:18:59.578Z,0.47
2022-12-08T08:22:03.474Z,0.60
2022-12-08T08:25:06.851Z,0.73
2022-12-08T08:28:27.547Z,0.77
2022-12-08T08:31:50.491Z,0.81
2022-12-08T08:35:13.175Z,0.86
2022-12-08T08:38:16.950Z,1.02
2022-12-08T08:41:20.018Z,1.20
2022-12-08T08:44:28.265Z,1.24
2022-12-08T08:47:30.976Z,1.40
2022-12-08T08:50:54.655Z,1.40
2022-12-08T08:53:58.389Z,1.36
2022-12-08T08:57:02.317Z,1.41
2022-12-08T09:00:07.224Z,1.54
2022-12-08T09:03:14.211Z,1.41
2022-12-08T09:06:18.021Z,1.47
2022-12-08T09:09:41.111Z,1.59
2022-12-08T09:12:43.883Z,1.59
2022-12-08T09:15:47.317Z,1.82
2022-12-08T09:18:50.175Z,1.65
2022-12-08T09:21:53.357Z,1.96
2022-12-08T09:24:56.154Z,1.79
2022-12-08T09:28:00.002Z,1.95
2022-12-08T09:31:02.863Z,1.94
2022-12-08T09:34:05.996Z,1.99
2022-12-08T09:37:09.381Z,1.97
2022-12-08T09:40:20.196Z,2.03
2022-12-08T09:43:38.124Z,2.11
2022-12-08T09:46:52.589Z,2.25
2022-12-08T10:35:07.564Z,2.49
2022-12-08T10:38:23.194Z,2.41
2022-12-08T10:41:25.902Z,2.61
2022-12-08T10:44:29.432Z,2.80
2022-12-08T10:47:38.903Z,3.00
2022-12-08T10:50:43.546Z,2.81
2022-12-08T10:53:47.127Z,2.77
2022-12-08T10:56:55.135Z,2.92
2022-12-08T10:59:57.835Z,2.71
2022-12-08T11:03:03.616Z,2.80
2022-12-08T11:06:16.564Z,2.93
2022-12-08T11:09:19.609Z,2.96
2022-12-08T11:12:28.218Z,2.85
2022-12-08T11:16:31.598Z,2.84
2022-12-08T11:19:59.256Z,2.94
2022-12-08T11:24:33.423Z,3.00
2022-12-08T11:28:11.370Z,3.03
2022-12-08T11:31:34.740Z,3.04
2022-12-08T11:35:02.512Z,3.00
2022-12-08T11:38:23.976Z,3.20
2022-12-08T11:41:41.105Z,3.16
2022-12-08T11:44:58.848Z,3.00
2022-12-08T11:48:21.389Z,3.30
2022-12-08T11:51:42.777Z,3.46
2022-12-08T11:55:15.934Z,3.29
2022-12-08T11:58:42.440Z,3.27
2022-12-08T12:01:45.198Z,3.27
2022-12-08T12:04:56.489Z,3.19
2022-12-08T12:08:14.720Z,3.21
2022-12-08T12:12:03.173Z,3.12
2022-12-08T12:15:24.343Z,3.00
2022-12-08T12:18:32.913Z,2.93
2022-12-08T12:21:56.383Z,3.11
2022-12-08T12:24:59.292Z,2.93
2022-12-08T12:28:06.600Z,3.32
2022-12-08T12:31:17.891Z,3.38
2022-12-08T12:34:25.537Z,3.37
2022-12-08T12:37:39.300Z,3.33
2022-12-08T12:40:42.713Z,3.26
2022-12-08T12:44:11.919Z,3.24
2022-12-08T12:47:56.337Z,3.24
2022-12-08T12:51:00.085Z,3.17
2022-12-08T12:54:26.691Z,3.22
2022-12-08T12:57:50.351Z,3.22
2022-12-08T13:01:13.091Z,3.30
2022-12-08T13:04:17.789Z,3.30
2022-12-08T13:07:23.018Z,3.25
2022-12-08T13:10:40.410Z,3.17
2022-12-08T13:14:38.860Z,3.13
2022-12-08T13:18:40.526Z,3.39
2022-12-08T13:22:54.202Z,3.20
2022-12-08T13:27:06.189Z,3.25
2022-12-08T13:30:41.172Z,3.18
2022-12-08T13:33:44.475Z,3.06
2022-12-08T13:37:02.631Z,3.07
2022-12-08T13:40:15.308Z,3.00
2022-12-08T13:43:38.737Z,2.98
2022-12-08T13:47:24.554Z,3.08
2022-12-08T13:57:35.294Z,3.05
2022-12-08T14:00:39.297Z,2.99
2022-12-08T14:04:21.702Z,2.93
2022-12-08T14:07:14.187Z,2.85
2022-12-08T14:10:24.715Z,2.86
2022-12-08T14:13:27.436Z,2.86
2022-12-08T14:16:41.054Z,2.90
2022-12-08T14:19:52.393Z,2.85
2022-12-08T14:22:56.511Z,2.85
2022-12-08T14:25:59.252Z,2.79
2022-12-08T14:29:02.568Z,2.72
2022-12-08T14:32:19.588Z,2.80
2022-12-08T14:35:28.832Z,2.70
2022-12-08T14:38:31.801Z,2.73
2022-12-08T14:41:35.002Z,2.66
2022-12-08T14:44:39.680Z,2.77
2022-12-08T14:47:51.593Z,2.63
2022-12-08T14:50:57.696Z,2.55
2022-12-08T14:54:07.344Z,2.53
2022-12-08T14:57:14.461Z,2.50
2022-12-08T15:00:22.178Z,2.47
2022-12-08T15:03:27.761Z,2.63
2022-12-08T15:06:30.967Z,2.55
2022-12-08T15:09:39.374Z,2.68
2022-12-08T15:13:04.977Z,2.70
2022-12-08T15:16:32.095Z,2.51
2022-12-08T15:19:35.318Z,2.37
2022-12-08T15:22:39.057Z,2.40
2022-12-08T15:25:42.082Z,2.29
2022-12-08T15:28:44.879Z,2.41
2022-12-08T15:31:49.341Z,2.24
2022-12-08T15:34:52.302Z,2.44
2022-12-08T15:38:55.723Z,2.47
2022-12-08T15:42:38.501Z,2.24
2022-12-08T15:46:21.766Z,2.18
2022-12-08T15:50:21.083Z,2.28
2022-12-08T15:54:33.048Z,2.42
2022-12-08T15:58:30.867Z,2.39
2022-12-08T16:00:58.905Z,2.45
2022-12-08T16:07:29.997Z,2.48
2022-12-08T16:11:08.438Z,2.41
2022-12-08T16:14:09.495Z,2.39
2022-12-08T16:17:21.359Z,2.22
2022-12-08T16:20:44.039Z,2.25
2022-12-08T16:23:48.473Z,2.25
2022-12-08T16:30:17.187Z,2.25
2022-12-08T16:33:20.008Z,2.49
2022-12-08T16:36:23.057Z,2.39
2022-12-08T16:39:25.893Z,2.50
2022-12-08T16:42:39.780Z,2.57
2022-12-08T16:45:45.063Z,2.57
2022-12-08T16:48:48.312Z,2.36
2022-12-08T16:51:50.948Z,2.37
2022-12-08T16:54:53.991Z,2.32
2022-12-08T16:57:56.819Z,2.29
2022-12-08T17:00:59.843Z,2.17
2022-12-08T17:07:28.230Z,2.20
2022-12-08T17:10:34.410Z,2.09
2022-12-08T17:13:41.223Z,2.14
2022-12-08T17:16:44.637Z,2.14
2022-12-08T17:19:47.760Z,2.08
2022-12-08T17:22:55.364Z,2.03
2022-12-08T17:26:00.079Z,2.12
2022-12-08T17:29:04.462Z,2.07
2022-12-08T17:32:07.674Z,2.03
2022-12-08T17:35:11.465Z,1.97
2022-12-08T17:38:15.009Z,2.02
2022-12-08T17:41:18.061Z,2.05
2022-12-08T17:44:21.398Z,2.00
2022-12-08T17:47:24.137Z,2.04
2022-12-08T17:50:27.133Z,2.03
2022-12-08T17:53:35.762Z,1.99
2022-12-08T17:56:40.271Z,2.00
2022-12-08T17:59:42.902Z,1.93
2022-12-08T18:02:46.000Z,2.04
2022-12-08T18:05:49.470Z,2.16
2022-12-08T18:08:52.275Z,2.09
2022-12-08T18:11:55.454Z,2.09
2022-12-08T18:14:58.444Z,2.01
2022-12-08T18:18:01.942Z,2.06
2022-12-08T18:21:05.079Z,2.01
2022-12-08T18:24:15.223Z,2.00
2022-12-08T18:27:18.145Z,1.97
2022-12-08T18:30:21.556Z,1.93
2022-12-08T18:33:24.352Z,1.89
2022-12-08T18:36:27.511Z,1.80
2022-12-08T18:39:32.471Z,1.87
2022-12-08T18:42:35.592Z,1.86
2022-12-08T18:45:39.793Z,1.93
2022-12-08T18:48:47.277Z,1.93
2022-12-08T18:51:50.113Z,2.02
2022-12-08T18:55:08.824Z,1.97
2022-12-08T18:58:15.151Z,1.95
2022-12-08T19:01:18.471Z,2.00
2022-12-08T19:04:29.440Z,2.08
2022-12-08T19:07:32.975Z,1.92
2022-12-08T19:10:38.276Z,1.94
2022-12-08T19:13:44.143Z,1.88
2022-12-08T19:16:46.825Z,1.83
2022-12-08T19:19:50.008Z,1.74
2022-12-08T19:22:53.090Z,1.90
2022-12-08T19:25:56.074Z,1.92
2022-12-08T19:28:58.981Z,2.06
2022-12-08T19:32:05.131Z,2.06
2022-12-08T19:35:08.395Z,1.91
2022-12-08T19:38:11.501Z,1.95
2022-12-08T19:41:33.391Z,1.95
2022-12-08T19:45:08.982Z,1.88
2022-12-08T19:48:14.071Z,1.86
2022-12-08T19:51:17.187Z,1.96
2022-12-08T19:54:19.924Z,1.90
2022-12-08T19:57:22.904Z,1.78
2022-12-08T20:00:25.713Z,1.89
2022-12-08T20:03:28.973Z,2.05
2022-12-08T20:06:31.760Z,2.01
2022-12-08T20:09:34.851Z,1.84
2022-12-08T20:12:38.423Z,1.97
2022-12-08T20:15:41.767Z,1.99
2022-12-08T20:18:44.718Z,1.85
2022-12-08T20:21:48.499Z,2.07
2022-12-08T20:24:57.366Z,2.03
2022-12-08T20:28:02.427Z,1.92
2022-12-08T20:31:05.323Z,1.86
2022-12-08T20:34:14.164Z,1.55
2022-12-08T20:37:16.863Z,1.56
2022-12-08T20:40:20.710Z,1.74
2022-12-08T20:43:24.058Z,1.79
2022-12-08T20:46:26.982Z,1.69
2022-12-08T20:49:34.390Z,2.00
2022-12-08T20:52:40.609Z,1.97
2022-12-08T20:55:43.444Z,1.83
2022-12-08T20:58:47.359Z,1.86
2022-12-08T21:01:52.511Z,1.83
2022-12-08T21:04:55.549Z,1.70
2022-12-08T21:07:58.561Z,1.72
2022-12-08T21:11:01.699Z,1.68
2022-12-08T21:14:04.790Z,1.68
2022-12-08T21:17:08.239Z,1.54
2022-12-08T21:20:11.614Z,1.41
2022-12-08T21:23:16.282Z,1.45
2022-12-08T21:26:21.759Z,1.45
2022-12-08T21:29:24.643Z,1.72
2022-12-08T21:32:30.356Z,1.68
2022-12-08T21:35:33.866Z,1.65
2022-12-08T21:38:37.843Z,2.00
2022-12-08T21:41:59.501Z,1.63
2022-12-08T21:45:02.425Z,1.61
2022-12-08T21:48:11.442Z,1.86
2022-12-08T21:51:14.827Z,1.44
2022-12-08T21:54:19.221Z,1.28
2022-12-08T21:57:22.484Z,1.50
2022-12-08T22:00:26.449Z,1.89
2022-12-08T22:03:29.952Z,1.87
2022-12-08T22:06:32.969Z,1.81
2022-12-08T22:09:36.358Z,1.90
2022-12-08T22:12:39.210Z,1.85
2022-12-08T22:15:42.227Z,1.51
2022-12-08T22:18:45.157Z,1.63
2022-12-08T22:21:48.191Z,1.70
2022-12-08T22:24:50.849Z,1.70
2022-12-08T22:27:53.918Z,1.68
2022-12-08T22:30:56.649Z,1.64
2022-12-08T22:34:00.097Z,1.70
2022-12-08T22:37:02.617Z,1.59
2022-12-08T22:40:06.787Z,1.60
2022-12-08T22:43:09.675Z,1.46
2022-12-08T22:46:24.393Z,1.67
2022-12-08T22:49:28.991Z,1.75
2022-12-08T22:52:31.787Z,1.74
2022-12-08T22:55:34.382Z,1.70
2022-12-08T22:58:38.691Z,1.65
2022-12-08T23:01:43.357Z,1.65
2022-12-08T23:04:46.555Z,1.59
2022-12-08T23:07:50.843Z,1.55
2022-12-08T23:10:54.687Z,1.81
2022-12-08T23:14:00.641Z,2.06
2022-12-08T23:17:03.891Z,1.65
2022-12-08T23:20:07.591Z,1.65
2022-12-08T23:23:11.084Z,1.77
2022-12-08T23:26:18.630Z,1.76
2022-12-08T23:29:21.805Z,1.54
2022-12-08T23:32:24.869Z,1.55
2022-12-08T23:35:28.029Z,1.48
2022-12-08T23:38:30.854Z,1.46
2022-12-08T23:41:33.839Z,1.46
2022-12-08T23:44:36.634Z,1.49
2022-12-08T23:47:39.533Z,1.86
2022-12-08T23:50:42.322Z,1.76
2022-12-08T23:53:46.050Z,1.68
2022-12-08T23:56:48.825Z,1.77
2022-12-08T23:59:51.724Z,1.90
